11°C Temp
10°C Dewpoint
94% Humidity
Temperature
13 KM/H
8 MPH
7 KTS
160°
South South
East

Wind Speed
Misty
Conditions
Pressure 1012.92 (hPa) - 29.91 (in)
Visibility 2.5 (mi) - 4.0 (km)

Current Conditions
EKCH
Location 55(km)
Metar :EKCH 252050Z 16007KT 4000 BR NSC 11/10 Q1013 TEMPO 6000
Thu 25th April 22:50 pm

Airport
  Metar Aviation API Data Provided by https://www.checkwx.com/ PHP scripts by weather34.com ©2019